Clarksville City, Texas
Current Conditions -  °F | °C
As of 1:00 PM on Monday 22 Dec 2014 (Local Time) from KGGG Reporting Station
Broken Clouds Broken Clouds  
Wind Chill: 69°   Ceiling: 3500
Heat Index: 69°   Visibility: 10mi
Dew Point: 52°   Wind: 16mph
Humidity: 54%   Direction: 240°WSW
Pressure: 29.56"   Gusts: 23mph
Location:  32.5368°N, 94.8683°W
Report Text: KGGG 221900Z 24014G20KT 10SM BKN035 21/11 A2956 RMK AO2 T02060111
Loading
Personal Weather Stations






























Interactive Weather Map New forecast layout! Learn more

10-Day Weather Forecast

Advertisements
Track Severe Weather on mobile